sensor_id;sensor_type;location;lat;lon;timestamp;temperature;humidity
28177;DHT22;15461;41.652;9.378;2023-06-19T00:02:08;21.10;99.90
28177;DHT22;15461;41.652;9.378;2023-06-19T00:04:34;21.10;99.90
28177;DHT22;15461;41.652;9.378;2023-06-19T00:07:00;21.10;99.90
28177;DHT22;15461;41.652;9.378;2023-06-19T00:09:26;21.10;99.90
28177;DHT22;15461;41.652;9.378;2023-06-19T00:11:52;21.10;99.90
28177;DHT22;15461;41.652;9.378;2023-06-19T00:14:18;21.10;99.90
28177;DHT22;15461;41.652;9.378;2023-06-19T00:16:44;21.10;99.90
28177;DHT22;15461;41.652;9.378;2023-06-19T00:19:11;21.10;99.90
28177;DHT22;15461;41.652;9.378;2023-06-19T00:21:38;21.10;99.90
28177;DHT22;15461;41.652;9.378;2023-06-19T00:24:04;21.10;99.90
28177;DHT22;15461;41.652;9.378;2023-06-19T00:26:30;21.10;99.90
28177;DHT22;15461;41.652;9.378;2023-06-19T00:28:56;21.10;99.90
28177;DHT22;15461;41.652;9.378;2023-06-19T00:31:22;21.10;99.90
28177;DHT22;15461;41.652;9.378;2023-06-19T00:33:49;21.10;99.90
28177;DHT22;15461;41.652;9.378;2023-06-19T00:36:16;21.10;99.90
28177;DHT22;15461;41.652;9.378;2023-06-19T00:38:47;21.10;99.90
28177;DHT22;15461;41.652;9.378;2023-06-19T00:41:14;21.10;99.90
28177;DHT22;15461;41.652;9.378;2023-06-19T00:43:42;21.10;99.90
28177;DHT22;15461;41.652;9.378;2023-06-19T00:46:07;21.00;99.90
28177;DHT22;15461;41.652;9.378;2023-06-19T00:48:34;21.00;99.90
28177;DHT22;15461;41.652;9.378;2023-06-19T00:51:00;21.00;99.90
28177;DHT22;15461;41.652;9.378;2023-06-19T00:53:27;21.00;99.90
28177;DHT22;15461;41.652;9.378;2023-06-19T00:55:54;21.00;99.90
28177;DHT22;15461;41.652;9.378;2023-06-19T00:58:21;20.90;99.90
28177;DHT22;15461;41.652;9.378;2023-06-19T01:00:47;20.90;99.90
28177;DHT22;15461;41.652;9.378;2023-06-19T01:03:17;20.90;99.90
28177;DHT22;15461;41.652;9.378;2023-06-19T01:05:44;20.90;99.90
28177;DHT22;15461;41.652;9.378;2023-06-19T01:09:18;20.90;99.90
28177;DHT22;15461;41.652;9.378;2023-06-19T01:11:21;20.80;99.90
28177;DHT22;15461;41.652;9.378;2023-06-19T01:14:00;20.80;99.90
28177;DHT22;15461;41.652;9.378;2023-06-19T01:16:29;20.80;99.90
28177;DHT22;15461;41.652;9.378;2023-06-19T01:18:56;20.80;99.90
28177;DHT22;15461;41.652;9.378;2023-06-19T01:21:21;20.80;99.90
28177;DHT22;15461;41.652;9.378;2023-06-19T01:23:47;20.80;99.90
28177;DHT22;15461;41.652;9.378;2023-06-19T01:26:14;20.80;99.90
28177;DHT22;15461;41.652;9.378;2023-06-19T01:28:41;20.80;99.90
28177;DHT22;15461;41.652;9.378;2023-06-19T01:31:13;20.80;99.90
28177;DHT22;15461;41.652;9.378;2023-06-19T01:33:42;20.80;99.90
28177;DHT22;15461;41.652;9.378;2023-06-19T01:36:09;20.80;99.90
28177;DHT22;15461;41.652;9.378;2023-06-19T01:38:36;20.80;99.90
28177;DHT22;15461;41.652;9.378;2023-06-19T01:41:04;20.80;99.90
28177;DHT22;15461;41.652;9.378;2023-06-19T01:43:32;20.80;99.90
28177;DHT22;15461;41.652;9.378;2023-06-19T01:45:59;20.70;99.90
28177;DHT22;15461;41.652;9.378;2023-06-19T01:48:27;20.70;99.90
28177;DHT22;15461;41.652;9.378;2023-06-19T01:50:53;20.70;99.90
28177;DHT22;15461;41.652;9.378;2023-06-19T01:53:19;20.60;99.90
28177;DHT22;15461;41.652;9.378;2023-06-19T01:55:45;20.60;99.90
28177;DHT22;15461;41.652;9.378;2023-06-19T01:58:11;20.60;99.90
28177;DHT22;15461;41.652;9.378;2023-06-19T02:00:37;20.60;99.90
28177;DHT22;15461;41.652;9.378;2023-06-19T02:03:04;20.60;99.90
28177;DHT22;15461;41.652;9.378;2023-06-19T02:05:31;20.70;99.90
28177;DHT22;15461;41.652;9.378;2023-06-19T02:07:57;20.70;99.90
28177;DHT22;15461;41.652;9.378;2023-06-19T02:10:23;20.70;99.90
28177;DHT22;15461;41.652;9.378;2023-06-19T02:12:48;20.70;99.90
28177;DHT22;15461;41.652;9.378;2023-06-19T02:15:14;20.70;99.90
28177;DHT22;15461;41.652;9.378;2023-06-19T02:17:40;20.60;99.90
28177;DHT22;15461;41.652;9.378;2023-06-19T02:20:08;20.70;99.90
28177;DHT22;15461;41.652;9.378;2023-06-19T02:22:38;20.60;99.90
28177;DHT22;15461;41.652;9.378;2023-06-19T02:25:05;20.70;99.90
28177;DHT22;15461;41.652;9.378;2023-06-19T02:27:31;20.70;99.90
28177;DHT22;15461;41.652;9.378;2023-06-19T02:29:58;20.60;99.90
28177;DHT22;15461;41.652;9.378;2023-06-19T02:32:24;20.70;99.90
28177;DHT22;15461;41.652;9.378;2023-06-19T02:34:50;20.70;99.90
28177;DHT22;15461;41.652;9.378;2023-06-19T02:37:16;20.70;99.90
28177;DHT22;15461;41.652;9.378;2023-06-19T02:39:42;20.70;99.90
28177;DHT22;15461;41.652;9.378;2023-06-19T02:42:08;20.60;99.90
28177;DHT22;15461;41.652;9.378;2023-06-19T02:44:34;20.60;99.90
28177;DHT22;15461;41.652;9.378;2023-06-19T02:46:59;20.60;99.90
28177;DHT22;15461;41.652;9.378;2023-06-19T02:49:25;20.70;99.90
28177;DHT22;15461;41.652;9.378;2023-06-19T02:51:51;20.60;99.90
28177;DHT22;15461;41.652;9.378;2023-06-19T02:54:17;20.60;99.90
28177;DHT22;15461;41.652;9.378;2023-06-19T02:56:43;20.60;99.90
28177;DHT22;15461;41.652;9.378;2023-06-19T02:59:08;20.60;99.90
28177;DHT22;15461;41.652;9.378;2023-06-19T03:01:34;20.60;99.90
28177;DHT22;15461;41.652;9.378;2023-06-19T03:04:00;20.60;99.90
28177;DHT22;15461;41.652;9.378;2023-06-19T03:06:26;20.60;99.90
28177;DHT22;15461;41.652;9.378;2023-06-19T03:08:52;20.50;99.90
28177;DHT22;15461;41.652;9.378;2023-06-19T03:11:18;20.50;99.90
28177;DHT22;15461;41.652;9.378;2023-06-19T03:13:50;20.50;99.90
28177;DHT22;15461;41.652;9.378;2023-06-19T03:16:17;20.50;99.90
28177;DHT22;15461;41.652;9.378;2023-06-19T03:18:43;20.50;99.90
28177;DHT22;15461;41.652;9.378;2023-06-19T03:21:11;20.50;99.90
28177;DHT22;15461;41.652;9.378;2023-06-19T03:23:37;20.40;99.90
28177;DHT22;15461;41.652;9.378;2023-06-19T03:26:04;20.50;99.90
28177;DHT22;15461;41.652;9.378;2023-06-19T03:28:31;20.50;99.90
28177;DHT22;15461;41.652;9.378;2023-06-19T03:30:58;20.50;99.90
28177;DHT22;15461;41.652;9.378;2023-06-19T03:33:24;20.50;99.90
28177;DHT22;15461;41.652;9.378;2023-06-19T03:35:50;20.50;99.90
28177;DHT22;15461;41.652;9.378;2023-06-19T03:38:35;20.50;99.90
28177;DHT22;15461;41.652;9.378;2023-06-19T03:41:02;20.50;99.90
28177;DHT22;15461;41.652;9.378;2023-06-19T03:43:28;20.50;99.90
28177;DHT22;15461;41.652;9.378;2023-06-19T03:45:53;20.60;99.90
28177;DHT22;15461;41.652;9.378;2023-06-19T03:48:20;20.60;99.90
28177;DHT22;15461;41.652;9.378;2023-06-19T03:50:45;20.60;99.90
28177;DHT22;15461;41.652;9.378;2023-06-19T03:53:11;20.60;99.90
28177;DHT22;15461;41.652;9.378;2023-06-19T03:55:37;20.60;99.90
28177;DHT22;15461;41.652;9.378;2023-06-19T03:58:03;20.60;99.90
28177;DHT22;15461;41.652;9.378;2023-06-19T04:00:29;20.60;99.90
28177;DHT22;15461;41.652;9.378;2023-06-19T04:02:55;20.70;99.90
28177;DHT22;15461;41.652;9.378;2023-06-19T04:05:22;20.70;99.90
28177;DHT22;15461;41.652;9.378;2023-06-19T04:07:48;20.70;99.90
28177;DHT22;15461;41.652;9.378;2023-06-19T04:10:14;20.80;99.90
28177;DHT22;15461;41.652;9.378;2023-06-19T04:12:40;20.80;99.90
28177;DHT22;15461;41.652;9.378;2023-06-19T04:15:09;20.80;99.90
28177;DHT22;15461;41.652;9.378;2023-06-19T04:17:36;20.90;99.90
28177;DHT22;15461;41.652;9.378;2023-06-19T04:20:03;21.00;99.90
28177;DHT22;15461;41.652;9.378;2023-06-19T04:22:42;21.10;99.90
28177;DHT22;15461;41.652;9.378;2023-06-19T04:25:09;21.30;99.90
28177;DHT22;15461;41.652;9.378;2023-06-19T04:27:38;21.40;99.90
28177;DHT22;15461;41.652;9.378;2023-06-19T04:30:04;21.50;99.90
28177;DHT22;15461;41.652;9.378;2023-06-19T04:32:32;21.60;99.90
28177;DHT22;15461;41.652;9.378;2023-06-19T04:35:00;21.70;99.90
28177;DHT22;15461;41.652;9.378;2023-06-19T04:37:25;21.70;99.90
28177;DHT22;15461;41.652;9.378;2023-06-19T04:39:51;21.90;99.90
28177;DHT22;15461;41.652;9.378;2023-06-19T04:42:17;21.90;99.90
28177;DHT22;15461;41.652;9.378;2023-06-19T04:44:45;22.00;99.90
28177;DHT22;15461;41.652;9.378;2023-06-19T04:47:12;22.10;99.90
28177;DHT22;15461;41.652;9.378;2023-06-19T04:49:37;22.10;99.90
28177;DHT22;15461;41.652;9.378;2023-06-19T04:52:03;22.20;99.90
28177;DHT22;15461;41.652;9.378;2023-06-19T04:54:29;22.30;99.90
28177;DHT22;15461;41.652;9.378;2023-06-19T04:56:58;22.30;99.90
28177;DHT22;15461;41.652;9.378;2023-06-19T04:59:24;22.40;99.90
28177;DHT22;15461;41.652;9.378;2023-06-19T05:01:50;22.50;99.90
28177;DHT22;15461;41.652;9.378;2023-06-19T05:04:22;22.50;99.90
28177;DHT22;15461;41.652;9.378;2023-06-19T05:06:49;22.60;99.90
28177;DHT22;15461;41.652;9.378;2023-06-19T05:09:15;22.60;99.90
28177;DHT22;15461;41.652;9.378;2023-06-19T05:11:41;22.60;99.90
28177;DHT22;15461;41.652;9.378;2023-06-19T05:14:06;22.70;99.90
28177;DHT22;15461;41.652;9.378;2023-06-19T05:16:33;22.80;99.90
28177;DHT22;15461;41.652;9.378;2023-06-19T05:18:59;22.80;99.90
28177;DHT22;15461;41.652;9.378;2023-06-19T05:21:25;22.90;99.90
28177;DHT22;15461;41.652;9.378;2023-06-19T05:23:51;22.90;99.90
28177;DHT22;15461;41.652;9.378;2023-06-19T05:26:19;22.90;99.90
28177;DHT22;15461;41.652;9.378;2023-06-19T05:28:45;23.00;99.90
28177;DHT22;15461;41.652;9.378;2023-06-19T05:31:11;23.00;99.90
28177;DHT22;15461;41.652;9.378;2023-06-19T05:33:37;23.10;99.90
28177;DHT22;15461;41.652;9.378;2023-06-19T05:36:03;23.20;99.90
28177;DHT22;15461;41.652;9.378;2023-06-19T05:38:29;23.20;99.90
28177;DHT22;15461;41.652;9.378;2023-06-19T05:40:59;23.30;99.90
28177;DHT22;15461;41.652;9.378;2023-06-19T05:43:25;23.40;99.90
28177;DHT22;15461;41.652;9.378;2023-06-19T05:45:52;23.50;99.90
28177;DHT22;15461;41.652;9.378;2023-06-19T05:48:18;23.60;99.90
28177;DHT22;15461;41.652;9.378;2023-06-19T05:50:44;23.70;99.90
28177;DHT22;15461;41.652;9.378;2023-06-19T05:53:10;23.70;99.90
28177;DHT22;15461;41.652;9.378;2023-06-19T05:55:35;23.80;99.90
28177;DHT22;15461;41.652;9.378;2023-06-19T05:58:02;23.90;99.90
28177;DHT22;15461;41.652;9.378;2023-06-19T06:00:30;24.10;99.90
28177;DHT22;15461;41.652;9.378;2023-06-19T06:02:59;24.20;99.90
28177;DHT22;15461;41.652;9.378;2023-06-19T06:05:28;24.30;99.90
28177;DHT22;15461;41.652;9.378;2023-06-19T06:07:54;24.30;99.90
28177;DHT22;15461;41.652;9.378;2023-06-19T06:10:22;24.30;99.90
28177;DHT22;15461;41.652;9.378;2023-06-19T06:12:48;24.40;99.90
28177;DHT22;15461;41.652;9.378;2023-06-19T06:15:15;24.40;99.90
28177;DHT22;15461;41.652;9.378;2023-06-19T06:17:41;24.40;99.90
28177;DHT22;15461;41.652;9.378;2023-06-19T06:20:07;24.50;99.90
28177;DHT22;15461;41.652;9.378;2023-06-19T06:22:39;24.50;99.90
28177;DHT22;15461;41.652;9.378;2023-06-19T06:25:06;24.70;99.90
28177;DHT22;15461;41.652;9.378;2023-06-19T06:27:32;24.80;99.90
28177;DHT22;15461;41.652;9.378;2023-06-19T06:29:58;24.90;99.90
28177;DHT22;15461;41.652;9.378;2023-06-19T06:32:23;25.00;99.90
28177;DHT22;15461;41.652;9.378;2023-06-19T06:34:49;25.10;99.90
28177;DHT22;15461;41.652;9.378;2023-06-19T06:37:15;25.20;99.90
28177;DHT22;15461;41.652;9.378;2023-06-19T06:39:48;25.40;99.90
28177;DHT22;15461;41.652;9.378;2023-06-19T06:42:15;25.50;99.90
28177;DHT22;15461;41.652;9.378;2023-06-19T06:44:41;25.50;99.90
28177;DHT22;15461;41.652;9.378;2023-06-19T06:47:07;25.50;99.90
28177;DHT22;15461;41.652;9.378;2023-06-19T06:49:33;25.60;99.90
28177;DHT22;15461;41.652;9.378;2023-06-19T06:51:59;25.80;99.90
28177;DHT22;15461;41.652;9.378;2023-06-19T06:54:26;25.80;99.90
28177;DHT22;15461;41.652;9.378;2023-06-19T06:56:52;25.80;99.90
28177;DHT22;15461;41.652;9.378;2023-06-19T06:59:21;25.90;99.90
28177;DHT22;15461;41.652;9.378;2023-06-19T07:01:47;25.90;99.90
28177;DHT22;15461;41.652;9.378;2023-06-19T07:04:13;26.00;99.90
28177;DHT22;15461;41.652;9.378;2023-06-19T07:06:38;26.10;99.90
28177;DHT22;15461;41.652;9.378;2023-06-19T07:09:04;26.20;99.90
28177;DHT22;15461;41.652;9.378;2023-06-19T07:11:30;26.30;99.90
28177;DHT22;15461;41.652;9.378;2023-06-19T07:13:56;26.40;99.90
28177;DHT22;15461;41.652;9.378;2023-06-19T07:16:21;26.30;99.90
28177;DHT22;15461;41.652;9.378;2023-06-19T07:18:47;26.30;99.90
28177;DHT22;15461;41.652;9.378;2023-06-19T07:21:14;26.30;99.90
28177;DHT22;15461;41.652;9.378;2023-06-19T07:23:41;26.40;99.90
28177;DHT22;15461;41.652;9.378;2023-06-19T07:26:09;26.50;99.90
28177;DHT22;15461;41.652;9.378;2023-06-19T07:28:35;26.70;99.90
28177;DHT22;15461;41.652;9.378;2023-06-19T07:31:04;26.70;99.90
28177;DHT22;15461;41.652;9.378;2023-06-19T07:33:30;26.80;99.90
28177;DHT22;15461;41.652;9.378;2023-06-19T07:35:56;26.70;99.90
28177;DHT22;15461;41.652;9.378;2023-06-19T07:38:22;26.80;99.90
28177;DHT22;15461;41.652;9.378;2023-06-19T07:40:48;27.00;99.90
28177;DHT22;15461;41.652;9.378;2023-06-19T07:43:15;27.00;99.90
28177;DHT22;15461;41.652;9.378;2023-06-19T07:45:40;27.10;99.90
28177;DHT22;15461;41.652;9.378;2023-06-19T07:48:06;27.20;99.90
28177;DHT22;15461;41.652;9.378;2023-06-19T07:50:32;27.20;99.90
28177;DHT22;15461;41.652;9.378;2023-06-19T07:52:58;27.20;99.90
28177;DHT22;15461;41.652;9.378;2023-06-19T07:55:24;27.30;99.90
28177;DHT22;15461;41.652;9.378;2023-06-19T07:57:49;27.30;99.90
28177;DHT22;15461;41.652;9.378;2023-06-19T08:00:15;27.40;99.90
28177;DHT22;15461;41.652;9.378;2023-06-19T08:02:42;27.50;99.90
28177;DHT22;15461;41.652;9.378;2023-06-19T08:05:08;27.60;99.90
28177;DHT22;15461;41.652;9.378;2023-06-19T08:07:35;27.60;99.90
28177;DHT22;15461;41.652;9.378;2023-06-19T08:10:01;27.60;99.90
28177;DHT22;15461;41.652;9.378;2023-06-19T08:12:30;27.60;99.90
28177;DHT22;15461;41.652;9.378;2023-06-19T08:14:56;27.50;99.90
28177;DHT22;15461;41.652;9.378;2023-06-19T08:17:21;27.50;99.90
28177;DHT22;15461;41.652;9.378;2023-06-19T08:19:47;27.50;99.90
28177;DHT22;15461;41.652;9.378;2023-06-19T08:22:13;27.70;99.90
28177;DHT22;15461;41.652;9.378;2023-06-19T08:24:39;27.70;99.90
28177;DHT22;15461;41.652;9.378;2023-06-19T08:27:06;27.80;99.90
28177;DHT22;15461;41.652;9.378;2023-06-19T08:29:33;27.90;99.90
28177;DHT22;15461;41.652;9.378;2023-06-19T08:31:58;28.10;99.90
28177;DHT22;15461;41.652;9.378;2023-06-19T08:34:25;28.10;99.90
28177;DHT22;15461;41.652;9.378;2023-06-19T08:36:51;28.10;99.90
28177;DHT22;15461;41.652;9.378;2023-06-19T08:39:17;27.90;99.90
28177;DHT22;15461;41.652;9.378;2023-06-19T08:41:43;27.80;99.90
28177;DHT22;15461;41.652;9.378;2023-06-19T08:44:09;27.70;99.90
28177;DHT22;15461;41.652;9.378;2023-06-19T08:46:35;27.60;99.90
28177;DHT22;15461;41.652;9.378;2023-06-19T08:49:04;27.50;99.90
28177;DHT22;15461;41.652;9.378;2023-06-19T08:51:31;27.50;99.90
28177;DHT22;15461;41.652;9.378;2023-06-19T08:54:02;27.50;99.90
28177;DHT22;15461;41.652;9.378;2023-06-19T08:56:30;27.60;99.90
28177;DHT22;15461;41.652;9.378;2023-06-19T08:59:13;27.90;99.90
28177;DHT22;15461;41.652;9.378;2023-06-19T09:01:40;28.30;99.90
28177;DHT22;15461;41.652;9.378;2023-06-19T09:04:18;28.40;99.90
28177;DHT22;15461;41.652;9.378;2023-06-19T09:06:56;28.50;99.90
28177;DHT22;15461;41.652;9.378;2023-06-19T09:09:24;28.70;99.90
28177;DHT22;15461;41.652;9.378;2023-06-19T09:14:35;28.80;99.90
28177;DHT22;15461;41.652;9.378;2023-06-19T09:17:05;28.70;99.90
28177;DHT22;15461;41.652;9.378;2023-06-19T09:19:33;28.70;99.90
28177;DHT22;15461;41.652;9.378;2023-06-19T09:22:04;28.80;99.90
28177;DHT22;15461;41.652;9.378;2023-06-19T09:24:41;28.80;99.90
28177;DHT22;15461;41.652;9.378;2023-06-19T09:27:11;28.80;99.90
28177;DHT22;15461;41.652;9.378;2023-06-19T09:29:40;28.90;99.90
28177;DHT22;15461;41.652;9.378;2023-06-19T09:32:19;29.00;99.90
28177;DHT22;15461;41.652;9.378;2023-06-19T09:34:47;29.10;99.90
28177;DHT22;15461;41.652;9.378;2023-06-19T09:37:14;29.10;99.90
28177;DHT22;15461;41.652;9.378;2023-06-19T09:39:40;29.30;99.90
28177;DHT22;15461;41.652;9.378;2023-06-19T09:42:08;29.40;99.90
28177;DHT22;15461;41.652;9.378;2023-06-19T09:44:41;29.40;99.90
28177;DHT22;15461;41.652;9.378;2023-06-19T09:47:18;29.40;99.90
28177;DHT22;15461;41.652;9.378;2023-06-19T09:49:53;29.50;99.90
28177;DHT22;15461;41.652;9.378;2023-06-19T09:52:20;29.60;99.90
28177;DHT22;15461;41.652;9.378;2023-06-19T09:54:50;29.70;99.90
28177;DHT22;15461;41.652;9.378;2023-06-19T09:57:17;29.70;99.90
28177;DHT22;15461;41.652;9.378;2023-06-19T09:59:47;29.60;99.90
28177;DHT22;15461;41.652;9.378;2023-06-19T10:02:16;29.40;99.90
28177;DHT22;15461;41.652;9.378;2023-06-19T10:04:56;29.30;99.90
28177;DHT22;15461;41.652;9.378;2023-06-19T10:07:26;29.30;99.90
28177;DHT22;15461;41.652;9.378;2023-06-19T10:10:00;29.40;99.90
28177;DHT22;15461;41.652;9.378;2023-06-19T10:15:16;29.40;99.90
28177;DHT22;15461;41.652;9.378;2023-06-19T10:17:45;29.50;99.90
28177;DHT22;15461;41.652;9.378;2023-06-19T10:20:29;29.40;99.90
28177;DHT22;15461;41.652;9.378;2023-06-19T10:23:16;29.40;99.90
28177;DHT22;15461;41.652;9.378;2023-06-19T10:26:02;29.20;99.90
28177;DHT22;15461;41.652;9.378;2023-06-19T10:28:33;29.00;99.90
28177;DHT22;15461;41.652;9.378;2023-06-19T10:31:04;29.10;99.90
28177;DHT22;15461;41.652;9.378;2023-06-19T10:33:32;29.20;99.90
28177;DHT22;15461;41.652;9.378;2023-06-19T10:35:59;29.20;99.90
28177;DHT22;15461;41.652;9.378;2023-06-19T10:38:26;29.10;99.90
28177;DHT22;15461;41.652;9.378;2023-06-19T10:40:52;29.10;99.90
28177;DHT22;15461;41.652;9.378;2023-06-19T10:43:24;29.20;99.90
28177;DHT22;15461;41.652;9.378;2023-06-19T10:45:51;29.10;99.90
28177;DHT22;15461;41.652;9.378;2023-06-19T10:48:21;28.90;99.90
28177;DHT22;15461;41.652;9.378;2023-06-19T10:50:48;29.00;99.90
28177;DHT22;15461;41.652;9.378;2023-06-19T10:53:32;29.10;99.90
28177;DHT22;15461;41.652;9.378;2023-06-19T10:56:01;29.10;99.90
28177;DHT22;15461;41.652;9.378;2023-06-19T10:58:28;29.00;99.90
28177;DHT22;15461;41.652;9.378;2023-06-19T11:00:54;29.10;99.90
28177;DHT22;15461;41.652;9.378;2023-06-19T11:03:21;29.50;99.90
28177;DHT22;15461;41.652;9.378;2023-06-19T11:05:47;29.70;99.90
28177;DHT22;15461;41.652;9.378;2023-06-19T11:08:21;29.90;99.90
28177;DHT22;15461;41.652;9.378;2023-06-19T11:10:47;29.90;99.90
28177;DHT22;15461;41.652;9.378;2023-06-19T11:13:15;30.00;99.90
28177;DHT22;15461;41.652;9.378;2023-06-19T11:15:42;29.90;99.90
28177;DHT22;15461;41.652;9.378;2023-06-19T11:18:08;29.80;99.90
28177;DHT22;15461;41.652;9.378;2023-06-19T11:20:47;29.80;99.90
28177;DHT22;15461;41.652;9.378;2023-06-19T11:23:15;29.90;99.90
28177;DHT22;15461;41.652;9.378;2023-06-19T11:25:42;29.80;99.90
28177;DHT22;15461;41.652;9.378;2023-06-19T11:28:12;29.70;99.90
28177;DHT22;15461;41.652;9.378;2023-06-19T11:30:39;29.50;99.90
28177;DHT22;15461;41.652;9.378;2023-06-19T11:33:20;29.50;99.90
28177;DHT22;15461;41.652;9.378;2023-06-19T11:35:50;29.70;99.90
28177;DHT22;15461;41.652;9.378;2023-06-19T11:38:22;29.80;99.90
28177;DHT22;15461;41.652;9.378;2023-06-19T11:40:49;30.00;99.90
28177;DHT22;15461;41.652;9.378;2023-06-19T11:43:26;30.00;99.90
28177;DHT22;15461;41.652;9.378;2023-06-19T11:46:03;30.00;99.90
28177;DHT22;15461;41.652;9.378;2023-06-19T11:48:29;30.10;99.90
28177;DHT22;15461;41.652;9.378;2023-06-19T11:50:55;30.00;99.90
28177;DHT22;15461;41.652;9.378;2023-06-19T11:53:22;30.20;99.90
28177;DHT22;15461;41.652;9.378;2023-06-19T11:55:48;30.20;99.90
28177;DHT22;15461;41.652;9.378;2023-06-19T11:58:15;30.30;99.90
28177;DHT22;15461;41.652;9.378;2023-06-19T12:00:41;30.00;99.90
28177;DHT22;15461;41.652;9.378;2023-06-19T12:03:07;29.70;99.90
28177;DHT22;15461;41.652;9.378;2023-06-19T12:05:33;29.60;99.90
28177;DHT22;15461;41.652;9.378;2023-06-19T12:07:59;29.60;99.90
28177;DHT22;15461;41.652;9.378;2023-06-19T12:10:28;29.60;99.90
28177;DHT22;15461;41.652;9.378;2023-06-19T12:12:54;29.70;99.90
28177;DHT22;15461;41.652;9.378;2023-06-19T12:15:20;29.60;99.90
28177;DHT22;15461;41.652;9.378;2023-06-19T12:17:46;29.70;99.90
28177;DHT22;15461;41.652;9.378;2023-06-19T12:20:12;29.60;99.90
28177;DHT22;15461;41.652;9.378;2023-06-19T12:22:40;29.30;99.90
28177;DHT22;15461;41.652;9.378;2023-06-19T12:25:06;28.90;99.90
28177;DHT22;15461;41.652;9.378;2023-06-19T12:27:32;28.70;99.90
28177;DHT22;15461;41.652;9.378;2023-06-19T12:29:58;28.60;99.90
28177;DHT22;15461;41.652;9.378;2023-06-19T12:32:24;28.50;99.90
28177;DHT22;15461;41.652;9.378;2023-06-19T12:34:50;28.40;99.90
28177;DHT22;15461;41.652;9.378;2023-06-19T12:37:20;28.10;99.90
28177;DHT22;15461;41.652;9.378;2023-06-19T12:39:47;27.90;99.90
28177;DHT22;15461;41.652;9.378;2023-06-19T12:42:13;27.90;99.90
28177;DHT22;15461;41.652;9.378;2023-06-19T12:44:42;28.10;99.90
28177;DHT22;15461;41.652;9.378;2023-06-19T12:47:09;28.20;99.90
28177;DHT22;15461;41.652;9.378;2023-06-19T12:49:35;28.50;99.90
28177;DHT22;15461;41.652;9.378;2023-06-19T12:52:01;28.50;99.90
28177;DHT22;15461;41.652;9.378;2023-06-19T12:54:27;28.40;99.90
28177;DHT22;15461;41.652;9.378;2023-06-19T12:56:53;28.50;99.90
28177;DHT22;15461;41.652;9.378;2023-06-19T12:59:19;28.60;99.90
28177;DHT22;15461;41.652;9.378;2023-06-19T13:01:45;28.50;99.90
28177;DHT22;15461;41.652;9.378;2023-06-19T13:04:12;28.50;99.90
28177;DHT22;15461;41.652;9.378;2023-06-19T13:06:38;28.70;99.90
28177;DHT22;15461;41.652;9.378;2023-06-19T13:09:05;28.60;99.90
28177;DHT22;15461;41.652;9.378;2023-06-19T13:11:32;28.60;99.90
28177;DHT22;15461;41.652;9.378;2023-06-19T13:14:00;28.60;99.90
28177;DHT22;15461;41.652;9.378;2023-06-19T13:16:26;28.70;99.90
28177;DHT22;15461;41.652;9.378;2023-06-19T13:18:52;28.90;99.90
28177;DHT22;15461;41.652;9.378;2023-06-19T13:21:18;28.90;99.90
28177;DHT22;15461;41.652;9.378;2023-06-19T13:23:44;28.90;99.90
28177;DHT22;15461;41.652;9.378;2023-06-19T13:26:10;29.00;99.90
28177;DHT22;15461;41.652;9.378;2023-06-19T13:28:36;28.90;99.90
28177;DHT22;15461;41.652;9.378;2023-06-19T13:31:03;28.90;99.90
28177;DHT22;15461;41.652;9.378;2023-06-19T13:33:29;28.80;99.90
28177;DHT22;15461;41.652;9.378;2023-06-19T13:35:55;28.80;99.90
28177;DHT22;15461;41.652;9.378;2023-06-19T13:38:20;28.80;99.90
28177;DHT22;15461;41.652;9.378;2023-06-19T13:40:47;28.90;99.90
28177;DHT22;15461;41.652;9.378;2023-06-19T13:43:13;28.80;99.90
28177;DHT22;15461;41.652;9.378;2023-06-19T13:45:40;28.80;99.90
28177;DHT22;15461;41.652;9.378;2023-06-19T13:48:06;28.90;99.90
28177;DHT22;15461;41.652;9.378;2023-06-19T13:50:32;28.90;99.90
28177;DHT22;15461;41.652;9.378;2023-06-19T13:52:59;28.90;99.90
28177;DHT22;15461;41.652;9.378;2023-06-19T13:55:25;28.80;99.90
28177;DHT22;15461;41.652;9.378;2023-06-19T13:57:51;28.80;99.90
28177;DHT22;15461;41.652;9.378;2023-06-19T14:00:18;28.60;99.90
28177;DHT22;15461;41.652;9.378;2023-06-19T14:02:44;28.60;99.90
28177;DHT22;15461;41.652;9.378;2023-06-19T14:05:10;28.60;99.90
28177;DHT22;15461;41.652;9.378;2023-06-19T14:07:36;28.50;99.90
28177;DHT22;15461;41.652;9.378;2023-06-19T14:10:03;28.30;99.90
28177;DHT22;15461;41.652;9.378;2023-06-19T14:12:30;28.30;99.90
28177;DHT22;15461;41.652;9.378;2023-06-19T14:14:56;28.40;99.90
28177;DHT22;15461;41.652;9.378;2023-06-19T14:17:22;28.30;99.90
28177;DHT22;15461;41.652;9.378;2023-06-19T14:19:49;28.30;99.90
28177;DHT22;15461;41.652;9.378;2023-06-19T14:22:16;28.50;99.90
28177;DHT22;15461;41.652;9.378;2023-06-19T14:24:42;28.60;99.90
28177;DHT22;15461;41.652;9.378;2023-06-19T14:27:08;28.60;99.90
28177;DHT22;15461;41.652;9.378;2023-06-19T14:29:34;28.60;99.90
28177;DHT22;15461;41.652;9.378;2023-06-19T14:32:00;28.60;99.90
28177;DHT22;15461;41.652;9.378;2023-06-19T14:34:26;28.70;99.90
28177;DHT22;15461;41.652;9.378;2023-06-19T14:36:51;28.80;99.90
28177;DHT22;15461;41.652;9.378;2023-06-19T14:39:17;28.60;99.90
28177;DHT22;15461;41.652;9.378;2023-06-19T14:41:43;28.40;99.90
28177;DHT22;15461;41.652;9.378;2023-06-19T14:44:09;28.40;99.90
28177;DHT22;15461;41.652;9.378;2023-06-19T14:46:35;28.60;99.90
28177;DHT22;15461;41.652;9.378;2023-06-19T14:49:10;28.80;99.90
28177;DHT22;15461;41.652;9.378;2023-06-19T14:51:36;28.90;99.90
28177;DHT22;15461;41.652;9.378;2023-06-19T14:54:02;28.90;99.90
28177;DHT22;15461;41.652;9.378;2023-06-19T14:56:28;29.00;99.90
28177;DHT22;15461;41.652;9.378;2023-06-19T14:58:54;29.10;99.90
28177;DHT22;15461;41.652;9.378;2023-06-19T15:01:19;29.10;99.90
28177;DHT22;15461;41.652;9.378;2023-06-19T15:03:45;29.20;99.90
28177;DHT22;15461;41.652;9.378;2023-06-19T15:06:11;29.30;99.90
28177;DHT22;15461;41.652;9.378;2023-06-19T15:08:37;29.50;99.90
28177;DHT22;15461;41.652;9.378;2023-06-19T15:11:04;29.40;99.90
28177;DHT22;15461;41.652;9.378;2023-06-19T15:13:31;29.10;99.90
28177;DHT22;15461;41.652;9.378;2023-06-19T15:15:57;29.00;99.90
28177;DHT22;15461;41.652;9.378;2023-06-19T15:18:24;29.00;99.90
28177;DHT22;15461;41.652;9.378;2023-06-19T15:20:50;29.10;99.90
28177;DHT22;15461;41.652;9.378;2023-06-19T15:23:16;29.00;99.90
28177;DHT22;15461;41.652;9.378;2023-06-19T15:25:42;28.80;99.90
28177;DHT22;15461;41.652;9.378;2023-06-19T15:28:08;28.70;99.90
28177;DHT22;15461;41.652;9.378;2023-06-19T15:30:34;28.80;99.90
28177;DHT22;15461;41.652;9.378;2023-06-19T15:33:00;28.90;99.90
28177;DHT22;15461;41.652;9.378;2023-06-19T15:35:26;28.90;99.90
28177;DHT22;15461;41.652;9.378;2023-06-19T15:37:51;28.90;99.90